createdAt,value
2017-10-22T00:02:12.277Z,12.50
2017-10-22T00:04:40.018Z,12.40
2017-10-22T00:07:07.558Z,12.40
2017-10-22T00:09:35.118Z,12.50
2017-10-22T00:12:02.686Z,12.50
2017-10-22T00:14:30.220Z,12.50
2017-10-22T00:16:58.540Z,12.40
2017-10-22T00:19:26.230Z,12.40
2017-10-22T00:21:53.841Z,12.40
2017-10-22T00:24:21.420Z,12.50
2017-10-22T00:26:49.025Z,12.40
2017-10-22T00:29:16.621Z,12.50
2017-10-22T00:31:44.287Z,12.50
2017-10-22T00:34:11.891Z,12.40
2017-10-22T00:36:39.438Z,12.30
2017-10-22T00:39:07.024Z,12.30
2017-10-22T00:41:35.569Z,12.40
2017-10-22T00:44:03.110Z,12.30
2017-10-22T00:46:30.694Z,12.40
2017-10-22T00:48:58.270Z,12.30
2017-10-22T00:51:26.597Z,12.30
2017-10-22T00:53:54.145Z,12.30
2017-10-22T00:56:21.828Z,12.30
2017-10-22T00:58:49.371Z,12.20
2017-10-22T01:01:17.044Z,12.20
2017-10-22T01:03:44.619Z,12.10
2017-10-22T01:06:12.162Z,12.00
2017-10-22T01:08:39.720Z,12.00
2017-10-22T01:11:07.292Z,12.10
2017-10-22T01:13:34.889Z,12.00
2017-10-22T01:16:03.205Z,12.00
2017-10-22T01:18:30.779Z,11.90
2017-10-22T01:20:59.133Z,11.90
2017-10-22T01:23:26.678Z,11.90
2017-10-22T01:25:54.429Z,11.90
2017-10-22T01:28:21.990Z,11.80
2017-10-22T01:30:49.575Z,11.70
2017-10-22T01:33:17.322Z,11.70
2017-10-22T01:35:44.875Z,11.60
2017-10-22T01:38:12.419Z,11.60
2017-10-22T01:40:40.767Z,11.50
2017-10-22T01:43:08.300Z,11.50
2017-10-22T01:45:35.863Z,11.40
2017-10-22T01:48:03.414Z,11.40
2017-10-22T01:50:30.954Z,11.40
2017-10-22T01:52:58.555Z,11.40
2017-10-22T01:55:26.366Z,11.30
2017-10-22T01:57:54.042Z,11.30
2017-10-22T02:00:21.592Z,11.30
2017-10-22T02:02:49.352Z,11.20
2017-10-22T02:05:16.915Z,11.30
2017-10-22T02:07:44.435Z,11.20
2017-10-22T02:10:12.920Z,11.30
2017-10-22T02:12:40.469Z,11.20
2017-10-22T02:15:08.789Z,11.20
2017-10-22T02:17:36.419Z,11.20
2017-10-22T02:20:04.727Z,11.20
2017-10-22T02:22:32.267Z,11.20
2017-10-22T02:25:00.022Z,11.10
2017-10-22T02:27:27.542Z,11.10
2017-10-22T02:29:55.097Z,11.10
2017-10-22T02:32:22.806Z,11.10
2017-10-22T02:34:50.325Z,11.10
2017-10-22T02:37:17.868Z,11.10
2017-10-22T02:39:45.445Z,11.10
2017-10-22T02:42:13.029Z,11.00
2017-10-22T02:44:41.339Z,11.10
2017-10-22T02:47:08.928Z,11.10
2017-10-22T02:49:36.486Z,11.10
2017-10-22T02:52:04.045Z,11.10
2017-10-22T02:54:31.743Z,11.10
2017-10-22T02:56:59.295Z,11.10
2017-10-22T02:59:26.855Z,11.10
2017-10-22T03:01:54.523Z,11.10
2017-10-22T03:04:22.030Z,11.10
2017-10-22T03:06:49.592Z,11.10
2017-10-22T03:09:17.129Z,11.10
2017-10-22T03:11:44.686Z,11.10
2017-10-22T03:14:12.313Z,11.10
2017-10-22T03:16:39.972Z,11.10
2017-10-22T03:19:07.509Z,11.20
2017-10-22T03:21:35.802Z,11.30
2017-10-22T03:24:04.406Z,11.30
2017-10-22T03:26:31.956Z,11.30
2017-10-22T03:28:59.525Z,11.30
2017-10-22T03:31:27.101Z,11.30
2017-10-22T03:33:54.678Z,11.40
2017-10-22T03:36:22.302Z,11.50
2017-10-22T03:38:49.885Z,11.50
2017-10-22T03:41:17.414Z,11.50
2017-10-22T03:43:44.953Z,11.50
2017-10-22T03:46:12.539Z,11.50
2017-10-22T03:48:40.094Z,11.50
2017-10-22T03:51:07.651Z,11.50
2017-10-22T03:53:35.203Z,11.60
2017-10-22T03:56:02.760Z,11.60
2017-10-22T03:58:30.310Z,11.70
2017-10-22T04:00:57.882Z,11.70
2017-10-22T04:03:25.458Z,11.70
2017-10-22T04:05:53.032Z,11.70
2017-10-22T04:08:20.600Z,11.70
2017-10-22T04:10:48.156Z,11.70
2017-10-22T04:13:15.723Z,11.70
2017-10-22T04:15:43.306Z,11.70
2017-10-22T04:18:10.921Z,11.60
2017-10-22T04:20:38.762Z,11.60
2017-10-22T04:23:06.494Z,11.50
2017-10-22T04:25:34.839Z,11.50
2017-10-22T04:28:02.390Z,11.50
2017-10-22T04:30:30.093Z,11.50
2017-10-22T04:32:58.544Z,11.30
2017-10-22T04:35:26.150Z,11.30
2017-10-22T04:37:53.813Z,11.20
2017-10-22T04:40:21.399Z,11.00
2017-10-22T04:42:48.947Z,10.90
2017-10-22T04:45:16.526Z,10.80
2017-10-22T04:47:44.085Z,10.80
2017-10-22T04:50:11.656Z,10.80
2017-10-22T04:52:39.377Z,10.70
2017-10-22T04:55:06.931Z,10.60
2017-10-22T04:57:34.480Z,10.60
2017-10-22T05:00:02.063Z,10.50
2017-10-22T05:02:29.606Z,10.50
2017-10-22T05:04:57.147Z,10.40
2017-10-22T05:07:24.729Z,10.30
2017-10-22T05:09:52.384Z,10.30
2017-10-22T05:12:19.942Z,10.30
2017-10-22T05:14:47.524Z,10.30
2017-10-22T05:17:15.049Z,10.30
2017-10-22T05:19:42.677Z,10.30
2017-10-22T05:22:11.006Z,10.30
2017-10-22T05:24:38.558Z,10.30
2017-10-22T05:27:06.133Z,10.20
2017-10-22T05:29:34.635Z,10.20
2017-10-22T05:32:02.165Z,10.20
2017-10-22T05:34:29.733Z,10.10
2017-10-22T05:36:57.449Z,10.20
2017-10-22T05:39:25.014Z,10.20
2017-10-22T05:41:52.694Z,10.20
2017-10-22T05:44:20.439Z,10.20
2017-10-22T05:46:47.988Z,10.20
2017-10-22T05:49:15.518Z,10.20
2017-10-22T05:51:43.980Z,10.20
2017-10-22T05:54:11.520Z,10.20
2017-10-22T05:56:39.076Z,10.20
2017-10-22T05:59:06.809Z,10.20
2017-10-22T06:01:34.364Z,10.20
2017-10-22T06:04:01.926Z,10.20
2017-10-22T06:06:29.517Z,10.20
2017-10-22T06:08:57.067Z,10.30
2017-10-22T06:11:24.649Z,10.30
2017-10-22T06:13:52.195Z,10.30
2017-10-22T06:16:19.746Z,10.30
2017-10-22T06:18:47.277Z,10.30
2017-10-22T06:21:15.021Z,10.30
2017-10-22T06:23:42.571Z,10.30
2017-10-22T06:26:10.170Z,10.30
2017-10-22T06:28:37.871Z,10.40
2017-10-22T06:31:05.400Z,10.40
2017-10-22T06:33:32.939Z,10.40
2017-10-22T06:36:01.119Z,10.40
2017-10-22T06:38:28.697Z,10.40
2017-10-22T06:40:56.306Z,10.40
2017-10-22T06:43:23.891Z,10.50
2017-10-22T06:45:51.421Z,10.50
2017-10-22T06:48:18.973Z,10.50
2017-10-22T06:50:50.737Z,10.60
2017-10-22T06:53:18.330Z,10.60
2017-10-22T06:55:46.016Z,10.60
2017-10-22T06:58:13.838Z,10.60
2017-10-22T07:00:41.392Z,10.70
2017-10-22T07:03:09.161Z,10.70
2017-10-22T07:05:36.706Z,10.70
2017-10-22T07:08:04.290Z,10.80
2017-10-22T07:10:31.845Z,10.80
2017-10-22T07:13:00.440Z,10.80
2017-10-22T07:15:28.009Z,10.90
2017-10-22T07:17:55.581Z,10.90
2017-10-22T07:20:23.426Z,10.90
2017-10-22T07:22:50.977Z,11.00
2017-10-22T07:25:18.540Z,11.00
2017-10-22T07:27:46.593Z,11.10
2017-10-22T07:30:14.245Z,11.10
2017-10-22T07:32:41.776Z,11.10
2017-10-22T07:35:10.126Z,11.10
2017-10-22T07:37:38.574Z,11.10
2017-10-22T07:40:06.132Z,11.20
2017-10-22T07:42:33.889Z,11.20
2017-10-22T07:45:01.498Z,11.20
2017-10-22T07:47:29.863Z,11.30
2017-10-22T07:49:57.567Z,11.20
2017-10-22T07:52:25.133Z,11.30
2017-10-22T07:54:52.704Z,11.30
2017-10-22T07:57:20.330Z,11.30
2017-10-22T07:59:48.662Z,11.40
2017-10-22T08:02:16.225Z,11.40
2017-10-22T08:04:43.831Z,11.60
2017-10-22T08:07:11.371Z,11.60
2017-10-22T08:09:39.731Z,11.80
2017-10-22T08:12:07.465Z,11.80
2017-10-22T08:14:35.100Z,11.80
2017-10-22T08:17:02.687Z,11.90
2017-10-22T08:19:30.297Z,12.00
2017-10-22T08:21:58.654Z,12.10
2017-10-22T08:24:26.986Z,12.00
2017-10-22T08:26:54.668Z,12.00
2017-10-22T08:29:22.222Z,12.00
2017-10-22T08:31:49.823Z,12.00
2017-10-22T08:34:18.237Z,12.10
2017-10-22T08:36:45.817Z,12.10
2017-10-22T08:39:13.353Z,12.20
2017-10-22T08:41:41.152Z,12.20
2017-10-22T08:44:08.795Z,12.30
2017-10-22T08:46:36.381Z,12.30
2017-10-22T08:49:03.930Z,12.30
2017-10-22T08:51:32.984Z,12.10
2017-10-22T08:54:00.542Z,12.10
2017-10-22T08:56:28.216Z,12.10
2017-10-22T08:58:55.789Z,12.10
2017-10-22T09:01:23.351Z,12.20
2017-10-22T09:03:51.005Z,12.10
2017-10-22T09:06:18.561Z,12.10
2017-10-22T09:08:46.173Z,12.00
2017-10-22T09:11:13.741Z,12.00
2017-10-22T09:13:41.288Z,12.00
2017-10-22T09:16:10.185Z,11.90
2017-10-22T09:18:37.837Z,11.90
2017-10-22T09:21:05.397Z,11.90
2017-10-22T09:23:33.719Z,11.90
2017-10-22T09:26:01.439Z,11.90
2017-10-22T09:28:29.836Z,11.90
2017-10-22T09:30:57.505Z,11.90
2017-10-22T09:33:25.029Z,11.90
2017-10-22T09:35:52.575Z,12.00
2017-10-22T09:38:21.089Z,12.00
2017-10-22T09:40:48.647Z,12.00
2017-10-22T09:43:16.262Z,12.00
2017-10-22T09:45:43.869Z,12.00
2017-10-22T09:48:11.403Z,12.20
2017-10-22T09:50:39.734Z,12.10
2017-10-22T09:53:07.466Z,12.10
2017-10-22T09:55:35.068Z,12.10
2017-10-22T09:58:02.755Z,12.00
2017-10-22T10:00:31.389Z,11.80
2017-10-22T10:02:59.000Z,11.70
2017-10-22T10:05:27.324Z,11.70
2017-10-22T10:07:54.901Z,11.70
2017-10-22T10:10:22.443Z,11.60
2017-10-22T10:12:49.987Z,11.50
2017-10-22T10:15:17.570Z,11.60
2017-10-22T10:17:45.154Z,11.50
2017-10-22T10:20:13.448Z,11.40
2017-10-22T10:22:41.849Z,11.50
2017-10-22T10:25:09.541Z,11.50
2017-10-22T10:27:37.163Z,11.50
2017-10-22T10:30:04.714Z,11.30
2017-10-22T10:32:32.215Z,11.30
2017-10-22T10:34:59.759Z,11.40
2017-10-22T10:37:28.212Z,11.40
2017-10-22T10:39:55.768Z,11.50
2017-10-22T10:42:23.531Z,11.50
2017-10-22T10:44:51.074Z,11.60
2017-10-22T10:47:20.340Z,11.80
2017-10-22T10:49:47.912Z,11.70
2017-10-22T10:52:15.561Z,11.70
2017-10-22T10:54:43.272Z,11.70
2017-10-22T10:57:10.812Z,11.70
2017-10-22T10:59:39.088Z,11.60
2017-10-22T11:02:06.682Z,11.60
2017-10-22T11:04:34.293Z,11.60
2017-10-22T11:09:36.460Z,11.60
2017-10-22T11:12:04.027Z,11.50
2017-10-22T11:14:31.783Z,11.50
2017-10-22T11:16:59.336Z,11.50
2017-10-22T11:19:26.950Z,11.50
2017-10-22T11:21:54.523Z,11.50
2017-10-22T11:24:22.241Z,11.60
2017-10-22T11:26:50.672Z,11.80
2017-10-22T11:29:18.284Z,11.80
2017-10-22T11:31:46.736Z,12.00
2017-10-22T11:34:14.562Z,12.00
2017-10-22T11:36:42.178Z,12.00
2017-10-22T11:39:10.492Z,12.20
2017-10-22T11:41:38.125Z,12.10
2017-10-22T11:44:05.963Z,12.20
2017-10-22T11:46:33.560Z,12.20
2017-10-22T11:49:01.260Z,12.30
2017-10-22T11:51:29.085Z,12.30
2017-10-22T11:53:56.949Z,12.20
2017-10-22T11:56:24.673Z,12.30
2017-10-22T11:58:53.441Z,12.40
2017-10-22T12:01:21.024Z,12.40
2017-10-22T12:03:48.575Z,12.50
2017-10-22T12:06:16.221Z,12.50
2017-10-22T12:08:43.757Z,12.60
2017-10-22T12:11:11.897Z,12.70
2017-10-22T12:13:40.243Z,12.70
2017-10-22T12:16:07.797Z,12.70
2017-10-22T12:18:35.564Z,12.80
2017-10-22T12:21:03.093Z,12.80
2017-10-22T12:23:30.662Z,12.70
2017-10-22T12:25:58.195Z,12.80
2017-10-22T12:28:25.771Z,12.90
2017-10-22T12:30:53.373Z,12.90
2017-10-22T12:33:21.838Z,12.90
2017-10-22T12:35:49.478Z,12.90
2017-10-22T12:38:17.119Z,12.80
2017-10-22T12:40:44.742Z,12.90
2017-10-22T12:43:13.346Z,12.90
2017-10-22T12:45:40.904Z,13.00
2017-10-22T12:48:08.602Z,13.00
2017-10-22T12:50:36.361Z,12.90
2017-10-22T12:53:04.056Z,12.90
2017-10-22T12:55:32.371Z,12.90
2017-10-22T12:57:59.969Z,12.90
2017-10-22T13:00:27.580Z,12.80
2017-10-22T13:02:55.144Z,12.90
2017-10-22T13:05:22.723Z,12.90
2017-10-22T13:07:50.283Z,13.00
2017-10-22T13:10:17.914Z,12.90
2017-10-22T13:12:45.792Z,13.00
2017-10-22T13:15:13.362Z,13.00
2017-10-22T13:17:41.072Z,13.00
2017-10-22T13:20:08.677Z,13.10
2017-10-22T13:22:36.316Z,13.10
2017-10-22T13:25:03.894Z,13.10
2017-10-22T13:27:32.317Z,13.20
2017-10-22T13:30:04.184Z,13.20
2017-10-22T13:32:31.984Z,13.20
2017-10-22T13:34:59.612Z,13.30
2017-10-22T13:37:27.161Z,13.30
2017-10-22T13:39:55.499Z,13.30
2017-10-22T13:42:23.159Z,13.20
2017-10-22T13:44:50.711Z,13.20
2017-10-22T13:47:18.311Z,13.10
2017-10-22T13:49:46.107Z,13.20
2017-10-22T13:52:13.917Z,13.30
2017-10-22T13:54:41.586Z,13.40
2017-10-22T13:57:09.233Z,13.40
2017-10-22T13:59:36.857Z,13.30
2017-10-22T14:02:04.463Z,13.30
2017-10-22T14:04:32.021Z,13.30
2017-10-22T14:06:59.887Z,13.30
2017-10-22T14:09:27.728Z,13.40
2017-10-22T14:11:55.292Z,13.50
2017-10-22T14:14:23.521Z,13.60
2017-10-22T14:16:51.822Z,13.60
2017-10-22T14:19:19.612Z,13.50
2017-10-22T14:21:47.350Z,13.60
2017-10-22T14:24:15.006Z,13.50
2017-10-22T14:26:42.585Z,13.60
2017-10-22T14:29:10.177Z,13.50
2017-10-22T14:31:37.743Z,13.50
2017-10-22T14:34:10.112Z,13.60
2017-10-22T14:36:37.708Z,13.60
2017-10-22T14:39:05.378Z,13.50
2017-10-22T14:41:33.090Z,13.50
2017-10-22T14:44:01.476Z,13.50
2017-10-22T14:46:30.277Z,13.40
2017-10-22T14:48:57.869Z,13.40
2017-10-22T14:51:25.455Z,13.40
2017-10-22T14:53:53.056Z,13.40
2017-10-22T14:56:20.613Z,13.20
2017-10-22T14:58:48.209Z,13.10
2017-10-22T15:01:15.785Z,13.00
2017-10-22T15:03:43.339Z,12.90
2017-10-22T15:06:11.049Z,12.90
2017-10-22T15:08:39.549Z,12.80
2017-10-22T15:11:07.819Z,12.80
2017-10-22T15:13:35.374Z,12.80
2017-10-22T15:16:03.037Z,12.70
2017-10-22T15:18:30.613Z,12.60
2017-10-22T15:20:58.263Z,12.50
2017-10-22T15:23:25.961Z,12.50
2017-10-22T15:25:53.581Z,12.40
2017-10-22T15:28:21.144Z,12.30
2017-10-22T15:30:49.021Z,12.20
2017-10-22T15:33:16.587Z,12.20
2017-10-22T15:35:44.153Z,12.20
2017-10-22T15:38:11.724Z,12.10
2017-10-22T15:40:39.374Z,12.10
2017-10-22T15:43:06.946Z,12.00
2017-10-22T15:45:34.608Z,11.90
2017-10-22T15:48:02.242Z,11.90
2017-10-22T15:50:29.879Z,11.80
2017-10-22T15:52:57.440Z,11.80
2017-10-22T15:55:25.098Z,11.80
2017-10-22T15:57:52.679Z,11.80
2017-10-22T16:00:20.548Z,11.90
2017-10-22T16:02:48.104Z,11.90
2017-10-22T16:05:15.670Z,11.80
2017-10-22T16:07:43.404Z,11.80
2017-10-22T16:10:10.983Z,11.70
2017-10-22T16:12:38.585Z,11.60
2017-10-22T16:15:06.149Z,11.60
2017-10-22T16:17:34.614Z,11.40
2017-10-22T16:20:02.930Z,11.40
2017-10-22T16:22:30.551Z,11.40
2017-10-22T16:24:58.977Z,11.30
2017-10-22T16:27:26.781Z,11.30
2017-10-22T16:29:54.415Z,11.30
2017-10-22T16:32:22.064Z,11.20
2017-10-22T16:34:49.723Z,11.20
2017-10-22T16:37:17.982Z,11.20
2017-10-22T16:39:45.892Z,11.20
2017-10-22T16:42:13.491Z,11.20
2017-10-22T16:44:41.174Z,11.20
2017-10-22T16:47:08.729Z,11.20
2017-10-22T16:49:36.291Z,11.10
2017-10-22T16:52:03.890Z,11.10
2017-10-22T16:54:31.516Z,11.10
2017-10-22T16:56:59.126Z,11.10
2017-10-22T16:59:27.463Z,11.10
2017-10-22T17:01:55.179Z,11.10
2017-10-22T17:04:23.726Z,11.20
2017-10-22T17:06:51.375Z,11.10
2017-10-22T17:09:19.142Z,11.20
2017-10-22T17:11:46.721Z,11.20
2017-10-22T17:14:15.072Z,11.20
2017-10-22T17:16:43.351Z,11.20
2017-10-22T17:19:10.913Z,11.20
2017-10-22T17:21:38.470Z,11.30
2017-10-22T17:24:06.030Z,11.30
2017-10-22T17:26:33.593Z,11.20
2017-10-22T17:29:02.004Z,11.20
2017-10-22T17:31:30.420Z,11.20
2017-10-22T17:33:58.009Z,11.20
2017-10-22T17:36:26.330Z,11.20
2017-10-22T17:38:54.891Z,11.10
2017-10-22T17:41:23.221Z,11.20
2017-10-22T17:43:50.813Z,11.10
2017-10-22T17:46:18.414Z,11.20
2017-10-22T17:48:45.983Z,11.20
2017-10-22T17:51:13.550Z,11.10
2017-10-22T17:53:41.133Z,11.10
2017-10-22T17:56:08.751Z,11.20
2017-10-22T17:58:37.156Z,11.10
2017-10-22T18:01:04.734Z,11.10
2017-10-22T18:03:32.278Z,11.10
2017-10-22T18:06:00.016Z,11.10
2017-10-22T18:08:27.573Z,11.10
2017-10-22T18:10:55.149Z,11.10
2017-10-22T18:13:23.450Z,11.10
2017-10-22T18:15:51.001Z,11.10
2017-10-22T18:18:18.580Z,11.20
2017-10-22T18:20:46.145Z,11.20
2017-10-22T18:23:14.608Z,11.10
2017-10-22T18:25:42.154Z,11.10
2017-10-22T18:28:10.594Z,11.10
2017-10-22T18:30:38.155Z,11.10
2017-10-22T18:33:05.731Z,11.10
2017-10-22T18:35:33.344Z,11.10
2017-10-22T18:38:01.014Z,11.00
2017-10-22T18:40:28.559Z,11.00
2017-10-22T18:42:56.921Z,11.00
2017-10-22T18:45:25.245Z,11.00
2017-10-22T18:47:52.806Z,11.00
2017-10-22T18:50:20.331Z,11.00
2017-10-22T18:52:48.665Z,11.10
2017-10-22T18:55:16.294Z,11.10
2017-10-22T18:57:43.893Z,11.10
2017-10-22T19:00:11.630Z,11.10
2017-10-22T19:02:39.211Z,11.10
2017-10-22T19:05:06.746Z,11.20
2017-10-22T19:07:34.389Z,11.20
2017-10-22T19:10:01.917Z,11.20
2017-10-22T19:12:30.428Z,11.10
2017-10-22T19:14:57.979Z,11.00
2017-10-22T19:17:25.648Z,11.00
2017-10-22T19:19:53.201Z,11.00
2017-10-22T19:22:20.870Z,11.00
2017-10-22T19:24:48.646Z,11.00
2017-10-22T19:27:16.836Z,11.00
2017-10-22T19:29:44.374Z,11.00
2017-10-22T19:32:11.973Z,11.00
2017-10-22T19:34:39.602Z,10.90
2017-10-22T19:37:07.280Z,10.90
2017-10-22T19:39:34.867Z,10.90
2017-10-22T19:42:03.208Z,10.80
2017-10-22T19:44:30.779Z,10.80
2017-10-22T19:46:58.448Z,10.80
2017-10-22T19:49:26.034Z,10.80
2017-10-22T19:51:54.448Z,10.80
2017-10-22T19:54:22.124Z,10.80
2017-10-22T19:56:50.167Z,10.80
2017-10-22T19:59:17.700Z,10.70
2017-10-22T20:01:45.650Z,10.70
2017-10-22T20:04:13.980Z,10.70
2017-10-22T20:06:41.586Z,10.60
2017-10-22T20:09:09.959Z,10.70
2017-10-22T20:11:37.558Z,10.60
2017-10-22T20:14:05.201Z,10.70
2017-10-22T20:16:32.794Z,10.70
2017-10-22T20:19:00.407Z,10.70
2017-10-22T20:21:28.804Z,10.60
2017-10-22T20:23:56.397Z,10.60
2017-10-22T20:26:23.968Z,10.60
2017-10-22T20:28:51.916Z,10.60
2017-10-22T20:31:19.498Z,10.60
2017-10-22T20:33:47.122Z,10.50
2017-10-22T20:36:15.186Z,10.50
2017-10-22T20:38:43.122Z,10.50
2017-10-22T20:41:11.502Z,10.40
2017-10-22T20:43:39.841Z,10.40
2017-10-22T20:46:07.466Z,10.40
2017-10-22T20:48:35.180Z,10.40
2017-10-22T20:51:03.814Z,10.30
2017-10-22T20:53:31.414Z,10.30
2017-10-22T20:55:58.993Z,10.30
2017-10-22T20:58:26.631Z,10.40
2017-10-22T21:00:54.215Z,10.40
2017-10-22T21:03:21.878Z,10.40
2017-10-22T21:05:50.195Z,10.40
2017-10-22T21:08:17.765Z,10.40
2017-10-22T21:10:45.344Z,10.40
2017-10-22T21:13:12.894Z,10.40
2017-10-22T21:15:40.474Z,10.80
2017-10-22T21:18:08.687Z,10.60
2017-10-22T21:20:36.300Z,10.50
2017-10-22T21:23:03.866Z,10.40
2017-10-22T21:25:31.450Z,10.30
2017-10-22T21:27:59.023Z,10.30
2017-10-22T21:30:26.596Z,10.40
2017-10-22T21:32:54.164Z,10.40
2017-10-22T21:35:21.734Z,10.30
2017-10-22T21:37:49.372Z,10.30
2017-10-22T21:40:16.950Z,10.30
2017-10-22T21:42:44.508Z,10.30
2017-10-22T21:45:12.174Z,10.30
2017-10-22T21:47:39.775Z,10.30
2017-10-22T21:50:07.330Z,10.20
2017-10-22T21:52:35.694Z,10.20
2017-10-22T21:55:04.032Z,10.10
2017-10-22T21:57:31.647Z,10.10
2017-10-22T22:00:00.022Z,10.10
2017-10-22T22:02:28.349Z,10.00
2017-10-22T22:04:56.089Z,10.00
2017-10-22T22:07:23.663Z,10.00
2017-10-22T22:09:51.281Z,10.00
2017-10-22T22:12:19.670Z,10.00
2017-10-22T22:14:47.222Z,10.00
2017-10-22T22:17:15.617Z,10.10
2017-10-22T22:19:43.154Z,10.10
2017-10-22T22:22:11.489Z,10.00
2017-10-22T22:24:39.080Z,10.00
2017-10-22T22:27:07.389Z,10.00
2017-10-22T22:29:35.006Z,10.00
2017-10-22T22:32:03.332Z,9.90
2017-10-22T22:34:30.949Z,9.90
2017-10-22T22:36:59.368Z,10.00
2017-10-22T22:39:27.019Z,10.00
2017-10-22T22:41:54.709Z,10.00
2017-10-22T22:44:22.260Z,10.10
2017-10-22T22:46:49.821Z,10.10
2017-10-22T22:49:17.377Z,10.10
2017-10-22T22:51:44.937Z,10.10
2017-10-22T22:54:12.673Z,10.10
2017-10-22T22:56:40.214Z,10.10
2017-10-22T22:59:07.795Z,10.10
2017-10-22T23:01:35.369Z,10.10
2017-10-22T23:04:02.912Z,10.00
2017-10-22T23:06:30.516Z,10.00
2017-10-22T23:08:58.228Z,10.00
2017-10-22T23:11:25.761Z,10.00
2017-10-22T23:13:54.151Z,10.10
2017-10-22T23:16:21.701Z,10.00
2017-10-22T23:18:49.382Z,10.10
2017-10-22T23:21:16.969Z,10.10
2017-10-22T23:23:44.512Z,10.10
2017-10-22T23:26:12.174Z,10.10
2017-10-22T23:28:39.744Z,10.20
2017-10-22T23:31:07.339Z,10.20
2017-10-22T23:33:35.655Z,10.20
2017-10-22T23:36:03.314Z,10.20
2017-10-22T23:38:30.905Z,10.20
2017-10-22T23:40:58.462Z,10.20
2017-10-22T23:43:26.028Z,10.20
2017-10-22T23:45:53.576Z,10.20
2017-10-22T23:48:21.117Z,10.10
2017-10-22T23:50:48.660Z,10.20
2017-10-22T23:53:16.214Z,10.10
2017-10-22T23:55:43.811Z,10.10
2017-10-22T23:58:11.981Z,10.10
